sensor_id;sensor_type;location;lat;lon;timestamp;P1;durP1;ratioP1;P2;durP2;ratioP2
51692;SDS011;37777;53.066;21.638;2023-04-06T00:01:11;18.52;;;9.57;;
51692;SDS011;37777;53.066;21.638;2023-04-06T00:08:13;18.55;;;8.65;;
51692;SDS011;37777;53.066;21.638;2023-04-06T00:15:14;19.70;;;9.23;;
51692;SDS011;37777;53.066;21.638;2023-04-06T00:22:16;19.75;;;7.85;;
51692;SDS011;37777;53.066;21.638;2023-04-06T00:29:18;13.43;;;7.68;;
51692;SDS011;37777;53.066;21.638;2023-04-06T00:36:20;17.33;;;7.35;;
51692;SDS011;37777;53.066;21.638;2023-04-06T00:43:22;17.63;;;8.18;;
51692;SDS011;37777;53.066;21.638;2023-04-06T00:50:24;14.48;;;7.30;;
51692;SDS011;37777;53.066;21.638;2023-04-06T00:57:26;14.25;;;7.07;;
51692;SDS011;37777;53.066;21.638;2023-04-06T01:04:28;13.80;;;6.88;;
51692;SDS011;37777;53.066;21.638;2023-04-06T01:11:30;10.10;;;6.35;;
51692;SDS011;37777;53.066;21.638;2023-04-06T01:18:32;11.80;;;7.22;;
51692;SDS011;37777;53.066;21.638;2023-04-06T01:25:34;20.40;;;7.03;;
51692;SDS011;37777;53.066;21.638;2023-04-06T01:32:36;16.45;;;6.40;;
51692;SDS011;37777;53.066;21.638;2023-04-06T01:39:38;16.50;;;6.38;;
51692;SDS011;37777;53.066;21.638;2023-04-06T01:46:40;10.10;;;6.10;;
51692;SDS011;37777;53.066;21.638;2023-04-06T01:53:42;8.77;;;5.68;;
51692;SDS011;37777;53.066;21.638;2023-04-06T02:00:43;14.40;;;5.90;;
51692;SDS011;37777;53.066;21.638;2023-04-06T02:07:45;7.90;;;5.88;;
51692;SDS011;37777;53.066;21.638;2023-04-06T02:14:47;15.10;;;6.32;;
51692;SDS011;37777;53.066;21.638;2023-04-06T02:21:49;12.77;;;6.03;;
51692;SDS011;37777;53.066;21.638;2023-04-06T02:28:51;8.52;;;5.50;;
51692;SDS011;37777;53.066;21.638;2023-04-06T02:35:53;6.93;;;5.22;;
51692;SDS011;37777;53.066;21.638;2023-04-06T02:42:54;13.70;;;6.18;;
51692;SDS011;37777;53.066;21.638;2023-04-06T02:49:56;19.15;;;5.43;;
51692;SDS011;37777;53.066;21.638;2023-04-06T02:56:58;11.88;;;6.28;;
51692;SDS011;37777;53.066;21.638;2023-04-06T03:04:00;7.85;;;4.35;;
51692;SDS011;37777;53.066;21.638;2023-04-06T03:11:02;6.90;;;4.65;;
51692;SDS011;37777;53.066;21.638;2023-04-06T03:18:03;6.25;;;4.57;;
51692;SDS011;37777;53.066;21.638;2023-04-06T03:25:06;8.95;;;5.22;;
51692;SDS011;37777;53.066;21.638;2023-04-06T03:32:07;8.68;;;4.53;;
51692;SDS011;37777;53.066;21.638;2023-04-06T03:39:11;11.00;;;4.97;;
51692;SDS011;37777;53.066;21.638;2023-04-06T03:46:13;4.93;;;4.35;;
51692;SDS011;37777;53.066;21.638;2023-04-06T03:53:16;4.93;;;4.05;;
51692;SDS011;37777;53.066;21.638;2023-04-06T04:00:17;7.88;;;4.60;;
51692;SDS011;37777;53.066;21.638;2023-04-06T04:07:19;6.13;;;4.57;;
51692;SDS011;37777;53.066;21.638;2023-04-06T04:14:21;7.47;;;4.55;;
51692;SDS011;37777;53.066;21.638;2023-04-06T04:21:23;6.82;;;4.57;;
51692;SDS011;37777;53.066;21.638;2023-04-06T04:28:25;11.27;;;4.75;;
51692;SDS011;37777;53.066;21.638;2023-04-06T04:35:27;7.63;;;4.53;;
51692;SDS011;37777;53.066;21.638;2023-04-06T04:42:29;8.55;;;5.10;;
51692;SDS011;37777;53.066;21.638;2023-04-06T04:49:31;10.93;;;5.60;;
51692;SDS011;37777;53.066;21.638;2023-04-06T04:56:32;7.60;;;4.80;;
51692;SDS011;37777;53.066;21.638;2023-04-06T05:03:34;9.32;;;4.38;;
51692;SDS011;37777;53.066;21.638;2023-04-06T05:10:37;5.93;;;3.95;;
51692;SDS011;37777;53.066;21.638;2023-04-06T05:17:39;4.78;;;3.95;;
51692;SDS011;37777;53.066;21.638;2023-04-06T05:24:41;5.25;;;4.30;;
51692;SDS011;37777;53.066;21.638;2023-04-06T05:31:43;9.70;;;5.00;;
51692;SDS011;37777;53.066;21.638;2023-04-06T05:38:45;5.55;;;4.40;;
51692;SDS011;37777;53.066;21.638;2023-04-06T05:45:47;6.18;;;4.68;;
51692;SDS011;37777;53.066;21.638;2023-04-06T05:52:48;4.85;;;4.03;;
51692;SDS011;37777;53.066;21.638;2023-04-06T05:59:50;9.05;;;4.45;;
51692;SDS011;37777;53.066;21.638;2023-04-06T06:06:52;6.70;;;4.53;;
51692;SDS011;37777;53.066;21.638;2023-04-06T06:13:54;6.68;;;3.70;;
51692;SDS011;37777;53.066;21.638;2023-04-06T06:20:55;4.68;;;4.15;;
51692;SDS011;37777;53.066;21.638;2023-04-06T06:27:57;5.28;;;3.72;;
51692;SDS011;37777;53.066;21.638;2023-04-06T06:35:00;6.18;;;4.38;;
51692;SDS011;37777;53.066;21.638;2023-04-06T06:42:02;3.92;;;3.53;;
51692;SDS011;37777;53.066;21.638;2023-04-06T06:49:03;4.68;;;3.85;;
51692;SDS011;37777;53.066;21.638;2023-04-06T06:56:05;4.05;;;3.55;;
51692;SDS011;37777;53.066;21.638;2023-04-06T07:03:07;4.63;;;3.97;;
51692;SDS011;37777;53.066;21.638;2023-04-06T07:10:09;7.70;;;4.18;;
51692;SDS011;37777;53.066;21.638;2023-04-06T07:17:11;5.18;;;3.78;;
51692;SDS011;37777;53.066;21.638;2023-04-06T07:24:13;3.85;;;3.50;;
51692;SDS011;37777;53.066;21.638;2023-04-06T07:31:15;3.53;;;3.22;;
51692;SDS011;37777;53.066;21.638;2023-04-06T07:38:16;4.10;;;3.72;;
51692;SDS011;37777;53.066;21.638;2023-04-06T07:45:18;3.50;;;3.20;;
51692;SDS011;37777;53.066;21.638;2023-04-06T07:52:20;5.45;;;3.80;;
51692;SDS011;37777;53.066;21.638;2023-04-06T07:59:22;5.95;;;3.92;;
51692;SDS011;37777;53.066;21.638;2023-04-06T08:06:24;6.22;;;4.10;;
51692;SDS011;37777;53.066;21.638;2023-04-06T08:13:26;4.82;;;3.60;;
51692;SDS011;37777;53.066;21.638;2023-04-06T08:20:27;5.10;;;3.97;;
51692;SDS011;37777;53.066;21.638;2023-04-06T08:27:29;5.85;;;4.15;;
51692;SDS011;37777;53.066;21.638;2023-04-06T08:34:32;5.90;;;3.70;;
51692;SDS011;37777;53.066;21.638;2023-04-06T08:41:34;4.07;;;3.50;;
51692;SDS011;37777;53.066;21.638;2023-04-06T08:48:36;4.20;;;3.17;;
51692;SDS011;37777;53.066;21.638;2023-04-06T08:55:37;4.55;;;4.03;;
51692;SDS011;37777;53.066;21.638;2023-04-06T09:02:41;7.47;;;4.32;;
51692;SDS011;37777;53.066;21.638;2023-04-06T09:09:44;6.05;;;4.40;;
51692;SDS011;37777;53.066;21.638;2023-04-06T09:16:49;5.97;;;3.97;;
51692;SDS011;37777;53.066;21.638;2023-04-06T09:24:00;4.32;;;3.70;;
51692;SDS011;37777;53.066;21.638;2023-04-06T09:31:02;6.47;;;4.53;;
51692;SDS011;37777;53.066;21.638;2023-04-06T09:38:10;4.97;;;4.28;;
51692;SDS011;37777;53.066;21.638;2023-04-06T09:45:12;6.13;;;4.35;;
51692;SDS011;37777;53.066;21.638;2023-04-06T09:52:14;7.95;;;4.43;;
51692;SDS011;37777;53.066;21.638;2023-04-06T10:06:34;5.50;;;3.95;;
51692;SDS011;37777;53.066;21.638;2023-04-06T10:13:37;7.95;;;4.70;;
51692;SDS011;37777;53.066;21.638;2023-04-06T10:20:39;5.50;;;4.45;;
51692;SDS011;37777;53.066;21.638;2023-04-06T10:27:43;4.25;;;3.75;;
51692;SDS011;37777;53.066;21.638;2023-04-06T10:34:44;5.82;;;4.25;;
51692;SDS011;37777;53.066;21.638;2023-04-06T10:41:46;5.65;;;4.13;;
51692;SDS011;37777;53.066;21.638;2023-04-06T10:48:49;6.38;;;4.10;;
51692;SDS011;37777;53.066;21.638;2023-04-06T10:55:52;4.68;;;3.45;;
51692;SDS011;37777;53.066;21.638;2023-04-06T11:02:58;4.47;;;3.40;;
51692;SDS011;37777;53.066;21.638;2023-04-06T11:10:00;6.68;;;3.58;;
51692;SDS011;37777;53.066;21.638;2023-04-06T11:17:15;3.90;;;3.50;;
51692;SDS011;37777;53.066;21.638;2023-04-06T11:31:24;5.85;;;3.70;;
51692;SDS011;37777;53.066;21.638;2023-04-06T11:38:26;4.95;;;4.20;;
51692;SDS011;37777;53.066;21.638;2023-04-06T11:45:28;4.22;;;3.83;;
51692;SDS011;37777;53.066;21.638;2023-04-06T11:52:40;3.88;;;3.33;;
51692;SDS011;37777;53.066;21.638;2023-04-06T11:59:42;4.07;;;3.50;;
51692;SDS011;37777;53.066;21.638;2023-04-06T12:06:44;4.50;;;3.75;;
51692;SDS011;37777;53.066;21.638;2023-04-06T12:13:46;3.10;;;2.85;;
51692;SDS011;37777;53.066;21.638;2023-04-06T12:20:48;4.45;;;3.33;;
51692;SDS011;37777;53.066;21.638;2023-04-06T12:27:51;7.70;;;4.22;;
51692;SDS011;37777;53.066;21.638;2023-04-06T12:34:53;4.07;;;3.55;;
51692;SDS011;37777;53.066;21.638;2023-04-06T12:41:55;6.25;;;4.10;;
51692;SDS011;37777;53.066;21.638;2023-04-06T12:48:57;4.85;;;4.25;;
51692;SDS011;37777;53.066;21.638;2023-04-06T12:56:00;7.82;;;4.38;;
51692;SDS011;37777;53.066;21.638;2023-04-06T13:03:03;5.15;;;4.07;;
51692;SDS011;37777;53.066;21.638;2023-04-06T13:10:05;6.25;;;4.40;;
51692;SDS011;37777;53.066;21.638;2023-04-06T13:17:07;9.43;;;5.07;;
51692;SDS011;37777;53.066;21.638;2023-04-06T13:24:08;9.10;;;4.25;;
51692;SDS011;37777;53.066;21.638;2023-04-06T13:31:10;5.50;;;3.78;;
51692;SDS011;37777;53.066;21.638;2023-04-06T13:38:13;4.65;;;4.22;;
51692;SDS011;37777;53.066;21.638;2023-04-06T13:45:16;5.57;;;4.10;;
51692;SDS011;37777;53.066;21.638;2023-04-06T13:52:18;7.03;;;4.18;;
51692;SDS011;37777;53.066;21.638;2023-04-06T13:59:21;4.15;;;3.75;;
51692;SDS011;37777;53.066;21.638;2023-04-06T14:06:23;8.55;;;5.00;;
51692;SDS011;37777;53.066;21.638;2023-04-06T14:13:32;7.47;;;4.90;;
51692;SDS011;37777;53.066;21.638;2023-04-06T14:20:34;5.15;;;4.20;;
51692;SDS011;37777;53.066;21.638;2023-04-06T14:27:35;6.38;;;4.28;;
51692;SDS011;37777;53.066;21.638;2023-04-06T14:34:37;4.68;;;4.20;;
51692;SDS011;37777;53.066;21.638;2023-04-06T14:41:39;5.47;;;4.32;;
51692;SDS011;37777;53.066;21.638;2023-04-06T14:48:42;5.40;;;4.47;;
51692;SDS011;37777;53.066;21.638;2023-04-06T14:55:44;7.35;;;4.60;;
51692;SDS011;37777;53.066;21.638;2023-04-06T15:02:46;6.78;;;4.72;;
51692;SDS011;37777;53.066;21.638;2023-04-06T15:09:48;9.70;;;5.13;;
51692;SDS011;37777;53.066;21.638;2023-04-06T15:16:49;7.93;;;5.40;;
51692;SDS011;37777;53.066;21.638;2023-04-06T15:23:51;10.35;;;5.05;;
51692;SDS011;37777;53.066;21.638;2023-04-06T15:30:53;9.20;;;5.47;;
51692;SDS011;37777;53.066;21.638;2023-04-06T15:37:56;7.80;;;5.55;;
51692;SDS011;37777;53.066;21.638;2023-04-06T15:44:58;9.30;;;5.93;;
51692;SDS011;37777;53.066;21.638;2023-04-06T15:52:00;9.75;;;5.70;;
51692;SDS011;37777;53.066;21.638;2023-04-06T15:59:02;9.07;;;6.18;;
51692;SDS011;37777;53.066;21.638;2023-04-06T16:06:04;9.38;;;6.07;;
51692;SDS011;37777;53.066;21.638;2023-04-06T16:13:09;14.95;;;7.28;;
51692;SDS011;37777;53.066;21.638;2023-04-06T16:20:12;11.43;;;7.10;;
51692;SDS011;37777;53.066;21.638;2023-04-06T16:27:16;11.20;;;6.85;;
51692;SDS011;37777;53.066;21.638;2023-04-06T16:34:18;12.10;;;6.60;;
51692;SDS011;37777;53.066;21.638;2023-04-06T16:41:20;11.05;;;6.35;;
51692;SDS011;37777;53.066;21.638;2023-04-06T16:48:22;12.20;;;6.95;;
51692;SDS011;37777;53.066;21.638;2023-04-06T16:55:24;14.98;;;8.05;;
51692;SDS011;37777;53.066;21.638;2023-04-06T17:02:26;14.75;;;7.15;;
51692;SDS011;37777;53.066;21.638;2023-04-06T17:09:28;9.70;;;6.82;;
51692;SDS011;37777;53.066;21.638;2023-04-06T17:16:36;18.35;;;7.85;;
51692;SDS011;37777;53.066;21.638;2023-04-06T17:23:39;13.13;;;7.18;;
51692;SDS011;37777;53.066;21.638;2023-04-06T17:30:41;9.95;;;6.70;;
51692;SDS011;37777;53.066;21.638;2023-04-06T17:37:43;12.93;;;7.80;;
51692;SDS011;37777;53.066;21.638;2023-04-06T17:44:46;15.52;;;8.18;;
51692;SDS011;37777;53.066;21.638;2023-04-06T17:51:53;15.13;;;8.07;;
51692;SDS011;37777;53.066;21.638;2023-04-06T17:58:55;17.58;;;7.80;;
51692;SDS011;37777;53.066;21.638;2023-04-06T18:06:14;15.05;;;7.50;;
51692;SDS011;37777;53.066;21.638;2023-04-06T18:13:16;13.13;;;7.47;;
51692;SDS011;37777;53.066;21.638;2023-04-06T18:20:20;11.93;;;7.20;;
51692;SDS011;37777;53.066;21.638;2023-04-06T18:27:23;18.50;;;7.97;;
51692;SDS011;37777;53.066;21.638;2023-04-06T18:34:28;21.00;;;8.13;;
51692;SDS011;37777;53.066;21.638;2023-04-06T18:41:31;16.27;;;8.77;;
51692;SDS011;37777;53.066;21.638;2023-04-06T18:48:36;11.40;;;7.05;;
51692;SDS011;37777;53.066;21.638;2023-04-06T18:55:40;14.77;;;8.15;;
51692;SDS011;37777;53.066;21.638;2023-04-06T19:02:45;15.32;;;8.18;;
51692;SDS011;37777;53.066;21.638;2023-04-06T19:09:49;16.67;;;8.77;;
51692;SDS011;37777;53.066;21.638;2023-04-06T19:16:55;13.75;;;9.13;;
51692;SDS011;37777;53.066;21.638;2023-04-06T19:24:00;12.70;;;7.72;;
51692;SDS011;37777;53.066;21.638;2023-04-06T19:31:08;16.52;;;8.68;;
51692;SDS011;37777;53.066;21.638;2023-04-06T19:38:15;11.50;;;6.50;;
51692;SDS011;37777;53.066;21.638;2023-04-06T19:45:23;13.82;;;8.32;;
51692;SDS011;37777;53.066;21.638;2023-04-06T19:52:31;16.42;;;8.55;;
51692;SDS011;37777;53.066;21.638;2023-04-06T19:59:33;14.45;;;8.02;;
51692;SDS011;37777;53.066;21.638;2023-04-06T20:06:35;15.38;;;8.68;;
51692;SDS011;37777;53.066;21.638;2023-04-06T20:13:37;14.52;;;8.55;;
51692;SDS011;37777;53.066;21.638;2023-04-06T20:20:39;15.23;;;8.32;;
51692;SDS011;37777;53.066;21.638;2023-04-06T20:27:41;24.75;;;9.25;;
51692;SDS011;37777;53.066;21.638;2023-04-06T20:34:42;16.75;;;9.38;;
51692;SDS011;37777;53.066;21.638;2023-04-06T20:41:44;17.35;;;9.30;;
51692;SDS011;37777;53.066;21.638;2023-04-06T20:48:46;19.55;;;9.85;;
51692;SDS011;37777;53.066;21.638;2023-04-06T20:55:48;14.68;;;8.82;;
51692;SDS011;37777;53.066;21.638;2023-04-06T21:02:50;19.10;;;9.77;;
51692;SDS011;37777;53.066;21.638;2023-04-06T21:09:52;21.55;;;8.95;;
51692;SDS011;37777;53.066;21.638;2023-04-06T21:16:54;16.70;;;9.07;;
51692;SDS011;37777;53.066;21.638;2023-04-06T21:23:56;22.25;;;9.27;;
51692;SDS011;37777;53.066;21.638;2023-04-06T21:30:58;22.83;;;9.35;;
51692;SDS011;37777;53.066;21.638;2023-04-06T21:38:01;20.08;;;10.02;;
51692;SDS011;37777;53.066;21.638;2023-04-06T21:45:03;23.88;;;10.20;;
51692;SDS011;37777;53.066;21.638;2023-04-06T21:52:05;17.27;;;9.63;;
51692;SDS011;37777;53.066;21.638;2023-04-06T21:59:07;20.20;;;9.65;;
51692;SDS011;37777;53.066;21.638;2023-04-06T22:06:09;22.58;;;10.45;;
51692;SDS011;37777;53.066;21.638;2023-04-06T22:13:11;20.65;;;9.68;;
51692;SDS011;37777;53.066;21.638;2023-04-06T22:20:13;24.67;;;11.88;;
51692;SDS011;37777;53.066;21.638;2023-04-06T22:27:15;18.13;;;10.20;;
51692;SDS011;37777;53.066;21.638;2023-04-06T22:34:17;21.55;;;10.75;;
51692;SDS011;37777;53.066;21.638;2023-04-06T22:41:19;19.13;;;10.45;;
51692;SDS011;37777;53.066;21.638;2023-04-06T22:48:21;28.13;;;12.25;;
51692;SDS011;37777;53.066;21.638;2023-04-06T22:55:23;27.85;;;12.27;;
51692;SDS011;37777;53.066;21.638;2023-04-06T23:02:25;25.98;;;12.82;;
51692;SDS011;37777;53.066;21.638;2023-04-06T23:09:27;31.95;;;13.57;;
51692;SDS011;37777;53.066;21.638;2023-04-06T23:16:29;31.13;;;13.52;;
51692;SDS011;37777;53.066;21.638;2023-04-06T23:23:31;25.23;;;12.57;;
51692;SDS011;37777;53.066;21.638;2023-04-06T23:30:32;27.20;;;13.60;;
51692;SDS011;37777;53.066;21.638;2023-04-06T23:37:34;29.02;;;14.45;;
51692;SDS011;37777;53.066;21.638;2023-04-06T23:44:36;28.90;;;14.10;;
51692;SDS011;37777;53.066;21.638;2023-04-06T23:51:38;30.65;;;14.38;;
51692;SDS011;37777;53.066;21.638;2023-04-06T23:58:40;29.67;;;15.02;;
